createdAt,value
2018-08-24T00:00:39.403Z,99.99
2018-08-24T00:01:39.454Z,99.99
2018-08-24T00:02:39.505Z,99.99
2018-08-24T00:03:39.556Z,99.99
2018-08-24T00:04:39.640Z,99.99
2018-08-24T00:05:39.659Z,99.99
2018-08-24T00:06:39.711Z,99.99
2018-08-24T00:07:39.762Z,99.99
2018-08-24T00:08:39.815Z,99.99
2018-08-24T00:09:39.906Z,99.99
2018-08-24T00:10:39.918Z,99.99
2018-08-24T00:11:39.967Z,99.99
2018-08-24T00:12:40.021Z,99.99
2018-08-24T00:13:40.072Z,99.99
2018-08-24T00:14:40.160Z,99.99
2018-08-24T00:15:40.173Z,99.99
2018-08-24T00:16:40.223Z,99.99
2018-08-24T00:17:40.278Z,99.99
2018-08-24T00:18:40.329Z,99.99
2018-08-24T00:19:40.406Z,99.99
2018-08-24T00:20:40.460Z,99.99
2018-08-24T00:21:40.483Z,99.99
2018-08-24T00:22:40.531Z,99.99
2018-08-24T00:23:40.586Z,99.99
2018-08-24T00:24:40.634Z,99.99
2018-08-24T00:25:40.710Z,99.99
2018-08-24T00:26:40.738Z,99.99
2018-08-24T00:27:40.788Z,99.99
2018-08-24T00:28:40.840Z,99.99
2018-08-24T00:29:40.892Z,99.99
2018-08-24T00:30:40.977Z,99.99
2018-08-24T00:31:41.034Z,99.99
2018-08-24T00:32:41.047Z,99.99
2018-08-24T00:33:41.098Z,99.99
2018-08-24T00:34:41.151Z,99.99
2018-08-24T00:35:41.225Z,99.99
2018-08-24T00:36:41.252Z,99.99
2018-08-24T00:37:41.311Z,99.99
2018-08-24T00:38:41.356Z,99.99
2018-08-24T00:39:41.405Z,99.99
2018-08-24T00:40:41.496Z,99.99
2018-08-24T00:41:41.509Z,99.99
2018-08-24T00:42:41.588Z,99.99
2018-08-24T00:43:41.615Z,99.99
2018-08-24T00:44:41.663Z,99.99
2018-08-24T00:45:41.747Z,99.99
2018-08-24T00:46:41.764Z,99.99
2018-08-24T00:47:41.816Z,99.99
2018-08-24T00:48:41.867Z,99.99
2018-08-24T00:49:41.920Z,99.99
2018-08-24T00:50:42.000Z,99.99
2018-08-24T00:51:42.020Z,99.99
2018-08-24T00:52:42.075Z,99.99
2018-08-24T00:53:42.123Z,99.99
2018-08-24T00:54:42.218Z,99.99
2018-08-24T00:55:42.255Z,99.99
2018-08-24T00:56:42.275Z,99.99
2018-08-24T00:57:42.332Z,99.99
2018-08-24T00:58:42.380Z,99.99
2018-08-24T00:59:42.431Z,99.99
2018-08-24T01:00:42.522Z,99.99
2018-08-24T01:01:42.532Z,99.99
2018-08-24T01:02:42.583Z,99.99
2018-08-24T01:03:42.634Z,99.99
2018-08-24T01:04:42.690Z,99.99
2018-08-24T01:05:42.769Z,99.99
2018-08-24T01:06:42.787Z,99.99
2018-08-24T01:07:42.872Z,99.99
2018-08-24T01:08:42.890Z,99.99
2018-08-24T01:09:42.946Z,99.99
2018-08-24T01:10:43.025Z,99.99
2018-08-24T01:11:43.046Z,99.99
2018-08-24T01:12:43.096Z,99.99
2018-08-24T01:13:43.153Z,99.99
2018-08-24T01:14:43.197Z,99.99
2018-08-24T01:15:43.274Z,99.99
2018-08-24T01:16:43.333Z,99.99
2018-08-24T01:17:43.356Z,99.99
2018-08-24T01:18:43.403Z,99.99
2018-08-24T01:19:43.454Z,99.99
2018-08-24T01:20:43.513Z,99.99
2018-08-24T01:21:43.580Z,99.99
2018-08-24T01:22:43.608Z,99.99
2018-08-24T01:23:43.659Z,99.99
2018-08-24T01:24:43.710Z,99.99
2018-08-24T01:25:43.769Z,99.99
2018-08-24T01:26:43.834Z,99.99
2018-08-24T01:27:43.867Z,99.99
2018-08-24T01:28:43.917Z,99.99
2018-08-24T01:29:43.965Z,99.99
2018-08-24T01:30:44.019Z,99.99
2018-08-24T01:31:44.094Z,99.99
2018-08-24T01:32:44.146Z,99.99
2018-08-24T01:33:44.171Z,99.99
2018-08-24T01:34:44.222Z,99.99
2018-08-24T01:35:44.274Z,99.99
2018-08-24T01:36:44.348Z,99.99
2018-08-24T01:37:44.377Z,99.99
2018-08-24T01:38:44.429Z,99.99
2018-08-24T01:39:44.487Z,99.99
2018-08-24T01:40:44.531Z,99.99
2018-08-24T01:41:44.607Z,99.99
2018-08-24T01:42:44.635Z,99.99
2018-08-24T01:43:44.686Z,99.99
2018-08-24T01:44:44.735Z,99.99
2018-08-24T01:45:44.788Z,99.99
2018-08-24T01:46:44.867Z,99.99
2018-08-24T01:47:44.896Z,99.99
2018-08-24T01:48:44.939Z,99.99
2018-08-24T01:49:44.991Z,99.99
2018-08-24T01:50:45.040Z,99.99
2018-08-24T01:51:45.119Z,99.99
2018-08-24T01:52:45.144Z,99.99
2018-08-24T01:53:45.222Z,99.99
2018-08-24T01:54:45.247Z,99.99
2018-08-24T01:55:45.298Z,99.99
2018-08-24T01:56:45.349Z,99.99
2018-08-24T01:57:45.402Z,95.94
2018-08-24T01:58:45.476Z,96.03
2018-08-24T01:59:45.502Z,95.98
2018-08-24T02:00:45.557Z,94.24
2018-08-24T02:01:45.608Z,94.92
2018-08-24T02:02:45.655Z,93.76
2018-08-24T02:03:45.732Z,92.61
2018-08-24T02:04:45.760Z,93.09
2018-08-24T02:05:45.812Z,92.80
2018-08-24T02:06:45.864Z,92.90
2018-08-24T02:07:45.914Z,92.32
2018-08-24T02:08:45.989Z,93.52
2018-08-24T02:09:46.021Z,94.58
2018-08-24T02:10:46.068Z,94.82
2018-08-24T02:11:46.124Z,95.11
2018-08-24T02:12:46.169Z,94.15
2018-08-24T02:13:46.245Z,95.79
2018-08-24T02:14:46.277Z,97.33
2018-08-24T02:15:46.329Z,99.07
2018-08-24T02:16:46.376Z,99.99
2018-08-24T02:17:46.426Z,99.99
2018-08-24T02:18:46.511Z,99.99
2018-08-24T02:19:46.528Z,99.99
2018-08-24T02:20:46.579Z,99.99
2018-08-24T02:21:46.633Z,99.99
2018-08-24T02:22:46.682Z,99.99
2018-08-24T02:23:46.765Z,99.99
2018-08-24T02:24:46.785Z,99.99
2018-08-24T02:25:46.842Z,99.99
2018-08-24T02:26:46.887Z,99.99
2018-08-24T02:27:46.941Z,99.99
2018-08-24T02:28:47.066Z,99.99
2018-08-24T02:29:47.042Z,99.99
2018-08-24T02:30:47.094Z,99.99
2018-08-24T02:31:47.168Z,99.99
2018-08-24T02:32:47.198Z,99.99
2018-08-24T02:33:47.270Z,99.99
2018-08-24T02:34:47.326Z,99.99
2018-08-24T02:35:47.350Z,99.99
2018-08-24T02:36:47.404Z,99.99
2018-08-24T02:37:47.456Z,99.99
2018-08-24T02:38:47.504Z,99.99
2018-08-24T02:39:47.578Z,99.99
2018-08-24T02:40:47.607Z,99.99
2018-08-24T02:41:47.662Z,99.99
2018-08-24T02:42:47.717Z,99.99
2018-08-24T02:43:47.764Z,99.99
2018-08-24T02:44:47.842Z,99.99
2018-08-24T02:45:47.866Z,99.99
2018-08-24T02:46:47.917Z,99.99
2018-08-24T02:47:47.968Z,99.99
2018-08-24T02:48:48.019Z,99.99
2018-08-24T02:49:48.115Z,99.99
2018-08-24T02:50:48.121Z,99.99
2018-08-24T02:51:48.176Z,99.99
2018-08-24T02:52:48.227Z,99.99
2018-08-24T02:53:48.274Z,99.99
2018-08-24T02:54:48.368Z,99.99
2018-08-24T02:55:48.379Z,99.99
2018-08-24T02:56:48.430Z,99.99
2018-08-24T02:57:48.480Z,99.99
2018-08-24T02:58:48.533Z,99.99
2018-08-24T02:59:48.609Z,99.99
2018-08-24T03:00:48.660Z,99.99
2018-08-24T03:01:48.687Z,99.99
2018-08-24T03:02:48.739Z,99.99
2018-08-24T03:03:48.795Z,99.99
2018-08-24T03:04:48.839Z,99.99
2018-08-24T03:05:48.916Z,99.99
2018-08-24T03:06:48.945Z,99.99
2018-08-24T03:07:48.996Z,99.99
2018-08-24T03:08:49.048Z,99.99
2018-08-24T03:09:49.099Z,99.99
2018-08-24T03:10:49.171Z,99.99
2018-08-24T03:11:49.201Z,99.99
2018-08-24T03:12:49.257Z,99.99
2018-08-24T03:13:49.301Z,99.99
2018-08-24T03:14:49.354Z,99.99
2018-08-24T03:15:49.428Z,99.99
2018-08-24T03:16:49.481Z,99.99
2018-08-24T03:17:49.507Z,99.99
2018-08-24T03:18:49.558Z,99.99
2018-08-24T03:19:49.613Z,99.99
2018-08-24T03:20:49.662Z,99.99
2018-08-24T03:21:49.750Z,99.99
2018-08-24T03:22:49.766Z,99.99
2018-08-24T03:23:49.814Z,99.99
2018-08-24T03:24:49.865Z,99.99
2018-08-24T03:25:49.938Z,99.99
2018-08-24T03:26:49.997Z,99.99
2018-08-24T03:27:50.017Z,99.99
2018-08-24T03:28:50.069Z,99.99
2018-08-24T03:29:50.123Z,99.99
2018-08-24T03:30:50.172Z,99.99
2018-08-24T03:31:50.250Z,99.99
2018-08-24T03:32:50.274Z,99.99
2018-08-24T03:33:50.327Z,99.99
2018-08-24T03:34:50.377Z,99.99
2018-08-24T03:35:50.430Z,99.99
2018-08-24T03:36:50.505Z,99.99
2018-08-24T03:37:50.529Z,99.99
2018-08-24T03:38:50.582Z,99.99
2018-08-24T03:39:50.632Z,99.99
2018-08-24T03:40:50.686Z,99.99
2018-08-24T03:41:50.761Z,99.99
2018-08-24T03:42:50.785Z,99.99
2018-08-24T03:43:50.838Z,99.99
2018-08-24T03:44:50.890Z,99.99
2018-08-24T03:45:51.006Z,99.99
2018-08-24T03:46:51.020Z,99.99
2018-08-24T03:47:51.065Z,99.99
2018-08-24T03:48:51.092Z,99.99
2018-08-24T03:49:51.151Z,99.99
2018-08-24T03:50:51.193Z,99.99
2018-08-24T03:51:51.244Z,99.99
2018-08-24T03:52:51.383Z,99.99
2018-08-24T03:53:51.349Z,99.99
2018-08-24T03:54:51.400Z,99.99
2018-08-24T03:55:51.449Z,99.99
2018-08-24T03:56:51.500Z,99.99
2018-08-24T03:57:51.575Z,99.99
2018-08-24T03:58:51.602Z,99.99
2018-08-24T03:59:51.655Z,99.99
2018-08-24T04:00:51.705Z,99.99
2018-08-24T04:01:51.756Z,99.99
2018-08-24T04:02:51.832Z,99.99
2018-08-24T04:03:51.858Z,99.99
2018-08-24T04:04:51.926Z,99.99
2018-08-24T04:05:51.966Z,99.99
2018-08-24T04:06:52.012Z,99.99
2018-08-24T04:07:52.100Z,99.99
2018-08-24T04:08:52.117Z,99.99
2018-08-24T04:09:52.168Z,99.99
2018-08-24T04:10:52.214Z,99.99
2018-08-24T04:11:52.271Z,99.99
2018-08-24T04:12:52.400Z,99.99
2018-08-24T04:13:52.368Z,99.99
2018-08-24T04:14:52.419Z,99.99
2018-08-24T04:15:52.471Z,99.99
2018-08-24T04:16:52.540Z,99.99
2018-08-24T04:17:53.148Z,99.99
2018-08-24T04:18:52.622Z,99.99
2018-08-24T04:19:52.678Z,99.99
2018-08-24T04:20:52.726Z,99.99
2018-08-24T04:21:52.775Z,99.99
2018-08-24T04:22:52.880Z,99.99
2018-08-24T04:23:52.880Z,99.99
2018-08-24T04:24:52.931Z,99.99
2018-08-24T04:25:53.051Z,99.99
2018-08-24T04:26:53.028Z,99.99
2018-08-24T04:27:53.103Z,99.99
2018-08-24T04:28:53.132Z,99.99
2018-08-24T04:29:53.206Z,99.99
2018-08-24T04:30:53.236Z,99.99
2018-08-24T04:31:53.289Z,99.99
2018-08-24T04:32:53.337Z,99.99
2018-08-24T04:33:53.388Z,99.99
2018-08-24T04:34:53.515Z,99.99
2018-08-24T04:35:53.513Z,99.99
2018-08-24T04:36:53.538Z,99.99
2018-08-24T04:37:53.592Z,99.99
2018-08-24T04:38:53.643Z,99.99
2018-08-24T04:39:53.693Z,99.99
2018-08-24T04:40:53.769Z,99.99
2018-08-24T04:41:53.793Z,99.99
2018-08-24T04:42:53.845Z,99.99
2018-08-24T04:43:53.894Z,99.99
2018-08-24T04:44:53.949Z,99.99
2018-08-24T04:45:54.022Z,99.99
2018-08-24T04:46:54.050Z,99.99
2018-08-24T04:47:54.098Z,99.99
2018-08-24T04:48:54.149Z,99.99
2018-08-24T04:49:54.199Z,99.99
2018-08-24T04:50:54.284Z,99.99
2018-08-24T04:51:54.302Z,99.99
2018-08-24T04:52:54.356Z,99.99
2018-08-24T04:53:54.407Z,99.99
2018-08-24T04:54:54.461Z,99.99
2018-08-24T04:55:54.546Z,99.99
2018-08-24T04:56:54.558Z,99.99
2018-08-24T04:57:54.608Z,99.99
2018-08-24T04:58:54.659Z,99.99
2018-08-24T04:59:54.709Z,99.99
2018-08-24T05:00:54.823Z,99.99
2018-08-24T05:01:54.813Z,99.99
2018-08-24T05:02:54.865Z,99.99
2018-08-24T05:03:54.914Z,99.99
2018-08-24T05:04:54.964Z,99.99
2018-08-24T05:05:55.040Z,99.99
2018-08-24T05:06:55.105Z,99.99
2018-08-24T05:07:55.118Z,99.99
2018-08-24T05:08:55.169Z,99.99
2018-08-24T05:09:55.217Z,99.99
2018-08-24T05:10:55.270Z,99.99
2018-08-24T05:11:55.356Z,99.99
2018-08-24T05:12:55.373Z,99.99
2018-08-24T05:13:55.431Z,99.99
2018-08-24T05:14:55.474Z,99.99
2018-08-24T05:15:55.528Z,99.99
2018-08-24T05:16:55.599Z,99.99
2018-08-24T05:17:55.628Z,99.99
2018-08-24T05:18:55.680Z,99.99
2018-08-24T05:19:55.733Z,99.99
2018-08-24T05:20:55.779Z,99.99
2018-08-24T05:21:55.856Z,99.99
2018-08-24T05:22:55.903Z,99.99
2018-08-24T05:23:55.932Z,99.99
2018-08-24T05:24:56.021Z,99.99
2018-08-24T05:25:56.038Z,99.99
2018-08-24T05:26:56.086Z,99.99
2018-08-24T05:27:56.220Z,99.99
2018-08-24T05:28:56.187Z,99.99
2018-08-24T05:29:56.237Z,99.99
2018-08-24T05:30:56.290Z,99.99
2018-08-24T05:31:56.339Z,99.99
2018-08-24T05:32:56.424Z,99.99
2018-08-24T05:33:56.440Z,99.99
2018-08-24T05:34:56.492Z,99.99
2018-08-24T05:35:56.543Z,99.99
2018-08-24T05:36:56.594Z,99.99
2018-08-24T05:37:56.669Z,99.99
2018-08-24T05:38:56.727Z,99.99
2018-08-24T05:39:56.746Z,99.99
2018-08-24T05:40:56.800Z,99.99
2018-08-24T05:41:56.849Z,99.99
2018-08-24T05:42:56.901Z,99.99
2018-08-24T05:43:56.977Z,99.99
2018-08-24T05:44:57.004Z,99.99
2018-08-24T05:45:57.054Z,99.99
2018-08-24T05:46:57.102Z,99.99
2018-08-24T05:47:57.153Z,99.99
2018-08-24T05:48:57.291Z,99.99
2018-08-24T05:49:57.257Z,99.99
2018-08-24T05:50:57.305Z,99.99
2018-08-24T05:51:57.363Z,99.99
2018-08-24T05:52:57.408Z,99.99
2018-08-24T05:53:57.488Z,99.99
2018-08-24T05:54:57.510Z,99.99
2018-08-24T05:55:57.560Z,99.99
2018-08-24T05:56:57.620Z,99.99
2018-08-24T05:57:57.663Z,99.99
2018-08-24T05:58:57.752Z,99.99
2018-08-24T05:59:57.764Z,99.99
2018-08-24T06:00:57.817Z,99.99
2018-08-24T06:01:57.881Z,99.99
2018-08-24T06:02:57.919Z,99.99
2018-08-24T06:03:58.003Z,99.99
2018-08-24T06:04:58.024Z,99.99
2018-08-24T06:05:58.074Z,99.99
2018-08-24T06:06:58.123Z,99.99
2018-08-24T06:07:58.173Z,99.99
2018-08-24T06:08:58.247Z,99.99
2018-08-24T06:09:58.298Z,99.99
2018-08-24T06:10:58.327Z,99.99
2018-08-24T06:11:58.375Z,99.99
2018-08-24T06:12:58.426Z,99.99
2018-08-24T06:13:58.478Z,99.99
2018-08-24T06:14:58.551Z,99.99
2018-08-24T06:15:58.747Z,99.99
2018-08-24T06:16:58.632Z,99.99
2018-08-24T06:17:58.686Z,99.99
2018-08-24T06:18:58.743Z,99.99
2018-08-24T06:19:58.810Z,99.99
2018-08-24T06:20:58.834Z,99.99
2018-08-24T06:21:58.886Z,99.99
2018-08-24T06:22:58.939Z,99.99
2018-08-24T06:23:58.991Z,99.99
2018-08-24T06:24:59.081Z,99.99
2018-08-24T06:25:59.091Z,99.99
2018-08-24T06:26:59.144Z,99.99
2018-08-24T06:27:59.194Z,99.99
2018-08-24T06:28:59.247Z,99.99
2018-08-24T06:29:59.344Z,99.99
2018-08-24T06:30:59.347Z,99.99
2018-08-24T06:31:59.399Z,99.99
2018-08-24T06:32:59.450Z,99.99
2018-08-24T06:33:59.504Z,99.99
2018-08-24T06:34:59.576Z,99.99
2018-08-24T06:35:59.645Z,99.99
2018-08-24T06:36:59.696Z,99.99
2018-08-24T06:37:59.708Z,99.99
2018-08-24T06:38:59.756Z,99.99
2018-08-24T06:39:59.808Z,99.99
2018-08-24T06:40:59.887Z,99.99
2018-08-24T06:41:59.975Z,99.99
2018-08-24T06:42:59.962Z,99.99
2018-08-24T06:44:00.015Z,99.99
2018-08-24T06:45:00.068Z,99.99
2018-08-24T06:46:00.139Z,99.99
2018-08-24T06:47:00.166Z,99.99
2018-08-24T06:48:00.222Z,99.99
2018-08-24T06:49:00.271Z,99.99
2018-08-24T06:50:00.330Z,99.99
2018-08-24T06:51:00.401Z,99.99
2018-08-24T06:52:00.425Z,99.99
2018-08-24T06:53:00.490Z,99.99
2018-08-24T06:54:00.648Z,99.99
2018-08-24T06:55:00.577Z,99.99
2018-08-24T06:56:00.654Z,99.99
2018-08-24T06:57:00.708Z,99.99
2018-08-24T06:58:00.731Z,99.99
2018-08-24T06:59:00.784Z,99.99
2018-08-24T07:00:00.836Z,99.99
2018-08-24T07:01:00.886Z,99.99
2018-08-24T07:02:00.962Z,99.99
2018-08-24T07:03:00.988Z,99.99
2018-08-24T07:04:01.040Z,99.99
2018-08-24T07:05:01.089Z,99.99
2018-08-24T07:06:01.140Z,99.99
2018-08-24T07:07:01.213Z,99.99
2018-08-24T07:08:01.242Z,99.99
2018-08-24T07:09:01.348Z,99.99
2018-08-24T07:10:01.354Z,99.99
2018-08-24T07:11:01.398Z,99.99
2018-08-24T07:12:01.499Z,99.99
2018-08-24T07:13:01.548Z,99.99
2018-08-24T07:14:01.550Z,99.99
2018-08-24T07:15:01.602Z,99.99
2018-08-24T07:16:01.649Z,99.99
2018-08-24T07:17:01.728Z,99.99
2018-08-24T07:18:01.760Z,99.99
2018-08-24T07:19:01.803Z,99.99
2018-08-24T07:20:01.852Z,99.99
2018-08-24T07:21:01.905Z,99.99
2018-08-24T07:22:01.981Z,99.99
2018-08-24T07:23:02.030Z,99.99
2018-08-24T07:24:02.056Z,99.99
2018-08-24T07:25:02.120Z,99.99
2018-08-24T07:26:02.158Z,99.99
2018-08-24T07:27:02.235Z,99.99
2018-08-24T07:28:02.284Z,99.99
2018-08-24T07:29:02.314Z,99.99
2018-08-24T07:30:02.365Z,99.99
2018-08-24T07:31:02.416Z,99.99
2018-08-24T07:32:02.511Z,99.99
2018-08-24T07:33:02.518Z,99.99
2018-08-24T07:34:02.570Z,99.99
2018-08-24T07:35:02.618Z,99.99
2018-08-24T07:36:02.669Z,99.99
2018-08-24T07:37:02.762Z,99.99
2018-08-24T07:38:02.775Z,99.99
2018-08-24T07:39:02.828Z,99.99
2018-08-24T07:40:02.879Z,99.99
2018-08-24T07:41:02.935Z,99.99
2018-08-24T07:42:03.005Z,99.99
2018-08-24T07:43:03.035Z,99.99
2018-08-24T07:44:03.116Z,99.99
2018-08-24T07:45:03.135Z,99.99
2018-08-24T07:46:03.187Z,99.99
2018-08-24T07:47:03.239Z,99.99
2018-08-24T07:48:03.292Z,99.99
2018-08-24T07:49:03.368Z,99.99
2018-08-24T07:50:03.396Z,99.99
2018-08-24T07:51:03.448Z,99.99
2018-08-24T07:52:03.496Z,99.99
2018-08-24T07:53:03.548Z,99.99
2018-08-24T07:54:03.625Z,99.99
2018-08-24T07:55:03.655Z,99.99
2018-08-24T07:56:03.704Z,99.99
2018-08-24T07:57:03.772Z,99.99
2018-08-24T07:58:03.807Z,99.99
2018-08-24T07:59:03.885Z,99.99
2018-08-24T08:00:03.915Z,99.99
2018-08-24T08:01:03.964Z,99.99
2018-08-24T08:02:04.021Z,99.99
2018-08-24T08:03:04.075Z,99.99
2018-08-24T08:04:04.146Z,99.99
2018-08-24T08:05:04.177Z,99.99
2018-08-24T08:06:04.226Z,99.99
2018-08-24T08:07:04.276Z,99.99
2018-08-24T08:08:04.331Z,99.99
2018-08-24T08:09:04.411Z,99.99
2018-08-24T08:10:04.440Z,99.99
2018-08-24T08:11:04.481Z,99.99
2018-08-24T08:12:04.535Z,99.99
2018-08-24T08:13:04.590Z,99.99
2018-08-24T08:14:04.673Z,99.99
2018-08-24T08:15:04.692Z,99.99
2018-08-24T08:16:04.745Z,99.99
2018-08-24T08:17:04.797Z,99.99
2018-08-24T08:18:04.922Z,99.99
2018-08-24T08:19:04.943Z,99.99
2018-08-24T08:20:04.954Z,99.99
2018-08-24T08:21:05.008Z,99.99
2018-08-24T08:22:05.059Z,99.99
2018-08-24T08:23:05.110Z,99.99
2018-08-24T08:24:05.197Z,99.99
2018-08-24T08:25:05.215Z,99.99
2018-08-24T08:26:05.268Z,99.99
2018-08-24T08:27:05.322Z,99.99
2018-08-24T08:28:05.381Z,99.99
2018-08-24T08:29:05.462Z,99.99
2018-08-24T08:30:05.482Z,99.99
2018-08-24T08:31:05.532Z,99.99
2018-08-24T08:32:05.582Z,99.99
2018-08-24T08:33:05.643Z,99.99
2018-08-24T08:34:05.720Z,99.99
2018-08-24T08:35:05.768Z,99.99
2018-08-24T08:36:05.795Z,99.99
2018-08-24T08:37:05.852Z,99.99
2018-08-24T08:38:05.897Z,99.99
2018-08-24T08:39:05.963Z,99.99
2018-08-24T08:40:06.032Z,99.99
2018-08-24T08:41:06.054Z,99.99
2018-08-24T08:42:06.108Z,99.99
2018-08-24T08:43:06.158Z,99.99
2018-08-24T08:44:06.215Z,99.99
2018-08-24T08:45:06.299Z,99.99
2018-08-24T08:46:06.319Z,99.99
2018-08-24T08:47:06.369Z,99.99
2018-08-24T08:48:06.422Z,99.99
2018-08-24T08:49:06.478Z,99.99
2018-08-24T08:50:06.556Z,99.99
2018-08-24T08:51:06.603Z,99.99
2018-08-24T08:52:06.636Z,99.99
2018-08-24T08:53:07.731Z,99.99
2018-08-24T08:54:08.732Z,99.99
2018-08-24T08:55:07.531Z,99.99
2018-08-24T08:56:06.871Z,99.99
2018-08-24T08:57:06.897Z,99.99
2018-08-24T08:58:06.948Z,99.99
2018-08-24T08:59:07.006Z,99.99
2018-08-24T09:00:07.061Z,99.99
2018-08-24T09:01:07.131Z,99.99
2018-08-24T09:02:07.167Z,99.99
2018-08-24T09:03:07.210Z,99.02
2018-08-24T09:04:07.264Z,94.57
2018-08-24T09:05:07.317Z,94.38
2018-08-24T09:06:07.479Z,97.77
2018-08-24T09:07:09.237Z,95.93
2018-08-24T09:08:07.479Z,95.25
2018-08-24T09:09:09.241Z,94.53
2018-08-24T09:10:08.244Z,96.80
2018-08-24T09:11:07.667Z,96.99
2018-08-24T09:12:07.694Z,99.98
2018-08-24T09:13:07.742Z,99.99
2018-08-24T09:14:07.798Z,99.99
2018-08-24T09:15:07.856Z,99.99
2018-08-24T09:16:07.926Z,99.99
2018-08-24T09:17:07.979Z,99.88
2018-08-24T09:18:08.005Z,99.99
2018-08-24T09:19:08.056Z,99.99
2018-08-24T09:20:08.110Z,99.99
2018-08-24T09:21:08.166Z,99.99
2018-08-24T09:22:09.039Z,99.98
2018-08-24T09:23:08.269Z,99.98
2018-08-24T09:24:08.320Z,99.98
2018-08-24T09:25:08.377Z,99.99
2018-08-24T09:26:08.431Z,99.99
2018-08-24T09:27:08.502Z,99.99
2018-08-24T09:28:08.545Z,99.79
2018-08-24T09:29:08.586Z,99.99
2018-08-24T09:30:08.641Z,99.99
2018-08-24T09:31:08.689Z,99.99
2018-08-24T09:32:08.774Z,99.99
2018-08-24T09:33:08.795Z,99.99
2018-08-24T09:34:08.853Z,99.99
2018-08-24T09:35:08.900Z,99.99
2018-08-24T09:36:08.951Z,99.99
2018-08-24T09:37:09.045Z,99.99
2018-08-24T09:38:10.748Z,99.99
2018-08-24T09:39:09.109Z,99.99
2018-08-24T09:40:09.165Z,99.99
2018-08-24T09:41:09.223Z,99.99
2018-08-24T09:42:09.297Z,99.99
2018-08-24T09:43:09.337Z,99.99
2018-08-24T09:44:09.380Z,99.99
2018-08-24T09:45:09.424Z,99.99
2018-08-24T09:46:09.482Z,99.99
2018-08-24T09:47:09.561Z,99.99
2018-08-24T09:48:09.585Z,99.99
2018-08-24T09:49:10.788Z,99.99
2018-08-24T09:50:10.252Z,99.99
2018-08-24T09:51:09.741Z,99.99
2018-08-24T09:52:09.838Z,99.99
2018-08-24T09:53:09.847Z,99.99
2018-08-24T09:54:09.899Z,99.99
2018-08-24T09:55:09.952Z,99.99
2018-08-24T09:56:10.003Z,99.99
2018-08-24T09:57:11.754Z,99.99
2018-08-24T09:58:10.109Z,99.99
2018-08-24T09:59:10.180Z,97.91
2018-08-24T10:00:11.053Z,95.40
2018-08-24T10:01:10.269Z,94.62
2018-08-24T10:02:10.346Z,95.49
2018-08-24T10:03:10.376Z,95.30
2018-08-24T10:04:11.256Z,94.24
2018-08-24T10:05:10.480Z,94.72
2018-08-24T10:06:10.536Z,94.67
2018-08-24T10:07:11.266Z,94.38
2018-08-24T10:08:10.661Z,94.62
2018-08-24T10:09:10.691Z,95.49
2018-08-24T10:10:10.743Z,95.49
2018-08-24T10:11:10.796Z,95.64
2018-08-24T10:12:10.855Z,93.12
2018-08-24T10:13:11.774Z,93.90
2018-08-24T10:14:11.762Z,93.66
2018-08-24T10:15:11.011Z,92.06
2018-08-24T10:16:11.063Z,91.58
2018-08-24T10:17:11.792Z,93.60
2018-08-24T10:18:11.191Z,93.02
2018-08-24T10:19:11.224Z,93.65
2018-08-24T10:20:11.276Z,90.75
2018-08-24T10:21:11.330Z,92.30
2018-08-24T10:22:12.267Z,90.65
2018-08-24T10:23:11.536Z,88.76
2018-08-24T10:24:11.491Z,87.99
2018-08-24T10:25:11.541Z,89.44
2018-08-24T10:26:13.266Z,89.59
2018-08-24T10:27:13.766Z,90.41
2018-08-24T10:28:11.739Z,91.82
2018-08-24T10:29:11.761Z,90.84
2018-08-24T10:30:13.772Z,92.30
2018-08-24T10:31:11.863Z,90.21
2018-08-24T10:32:11.918Z,89.59
2018-08-24T10:33:12.004Z,89.06
2018-08-24T10:34:12.033Z,91.58
2018-08-24T10:35:12.081Z,91.67
2018-08-24T10:36:12.136Z,91.52
2018-08-24T10:37:12.186Z,90.56
2018-08-24T10:38:12.293Z,88.37
2018-08-24T10:39:12.420Z,84.93
2018-08-24T10:40:12.350Z,86.87
2018-08-24T10:41:12.465Z,85.03
2018-08-24T10:42:12.462Z,83.18
2018-08-24T10:43:12.537Z,85.85
2018-08-24T10:44:12.599Z,84.06
2018-08-24T10:45:12.625Z,82.90
2018-08-24T10:46:12.673Z,82.30
2018-08-24T10:47:12.754Z,82.88
2018-08-24T10:48:12.807Z,82.78
2018-08-24T10:49:13.580Z,80.50
2018-08-24T10:50:12.894Z,79.35
2018-08-24T10:51:13.778Z,81.83
2018-08-24T10:52:13.003Z,83.17
2018-08-24T10:53:13.778Z,83.95
2018-08-24T10:54:13.136Z,81.72
2018-08-24T10:55:13.166Z,81.83
2018-08-24T10:56:13.294Z,83.28
2018-08-24T10:57:13.278Z,83.58
2018-08-24T10:58:13.370Z,84.05
2018-08-24T10:59:13.417Z,81.72
2018-08-24T11:00:13.440Z,81.91
2018-08-24T11:01:13.493Z,80.36
2018-08-24T11:02:13.627Z,85.21
2018-08-24T11:03:14.282Z,80.07
2018-08-24T11:04:13.685Z,81.37
2018-08-24T11:05:13.734Z,83.45
2018-08-24T11:06:13.769Z,81.41
2018-08-24T11:07:13.941Z,81.70
2018-08-24T11:08:13.879Z,79.04
2018-08-24T11:09:13.959Z,80.60
2018-08-24T11:10:14.817Z,80.60
2018-08-24T11:11:14.054Z,80.36
2018-08-24T11:12:14.102Z,80.26
2018-08-24T11:13:14.159Z,81.82
2018-08-24T11:14:14.212Z,82.03
2018-08-24T11:15:14.291Z,84.45
2018-08-24T11:16:14.322Z,85.71
2018-08-24T11:17:14.381Z,82.32
2018-08-24T11:18:14.434Z,82.22
2018-08-24T11:19:14.488Z,84.20
2018-08-24T11:20:14.566Z,80.85
2018-08-24T11:21:15.586Z,82.10
2018-08-24T11:22:14.657Z,81.66
2018-08-24T11:23:14.712Z,80.98
2018-08-24T11:24:14.762Z,83.54
2018-08-24T11:25:14.844Z,77.95
2018-08-24T11:26:14.966Z,75.68
2018-08-24T11:27:14.929Z,77.28
2018-08-24T11:28:14.986Z,76.65
2018-08-24T11:29:15.087Z,77.37
2018-08-24T11:30:15.098Z,79.97
2018-08-24T11:31:15.178Z,76.48
2018-08-24T11:32:15.210Z,75.51
2018-08-24T11:33:15.265Z,78.13
2018-08-24T11:34:15.321Z,79.97
2018-08-24T11:35:15.376Z,75.85
2018-08-24T11:36:16.140Z,76.54
2018-08-24T11:37:15.492Z,76.60
2018-08-24T11:38:15.546Z,77.01
2018-08-24T11:39:19.299Z,78.91
2018-08-24T11:40:15.661Z,79.97
2018-08-24T11:41:16.799Z,82.20
2018-08-24T11:42:15.822Z,82.20
2018-08-24T11:43:17.802Z,81.23
2018-08-24T11:44:15.884Z,82.75
2018-08-24T11:45:15.943Z,83.13
2018-08-24T11:46:16.044Z,82.51
2018-08-24T11:47:16.054Z,84.11
2018-08-24T11:48:16.106Z,85.24
2018-08-24T11:49:16.165Z,85.14
2018-08-24T11:50:16.233Z,86.16
2018-08-24T11:51:17.809Z,86.30
2018-08-24T11:52:16.371Z,85.82
2018-08-24T11:53:16.386Z,85.52
2018-08-24T11:54:16.463Z,86.65
2018-08-24T11:55:16.495Z,87.90
2018-08-24T11:56:16.549Z,87.27
2018-08-24T11:57:17.154Z,88.34
2018-08-24T11:58:16.663Z,87.99
2018-08-24T11:59:16.712Z,87.99
2018-08-24T12:00:16.769Z,87.41
2018-08-24T12:01:17.609Z,87.95
2018-08-24T12:02:16.883Z,87.85
2018-08-24T12:03:19.812Z,88.73
2018-08-24T12:04:16.984Z,88.53
2018-08-24T12:05:17.036Z,87.71
2018-08-24T12:06:17.096Z,88.87
2018-08-24T12:07:17.170Z,87.71
2018-08-24T12:08:17.282Z,87.32
2018-08-24T12:09:17.812Z,87.23
2018-08-24T12:10:17.315Z,87.37
2018-08-24T12:11:17.362Z,88.57
2018-08-24T12:12:17.548Z,87.57
2018-08-24T12:13:17.474Z,88.63
2018-08-24T12:14:18.430Z,88.67
2018-08-24T12:15:17.589Z,88.82
2018-08-24T12:16:17.631Z,88.67
2018-08-24T12:17:17.736Z,88.48
2018-08-24T12:18:17.757Z,88.73
2018-08-24T12:19:17.792Z,90.03
2018-08-24T12:20:17.853Z,89.35
2018-08-24T12:21:19.890Z,87.71
2018-08-24T12:22:17.981Z,86.74
2018-08-24T12:23:19.817Z,86.74
2018-08-24T12:24:18.877Z,84.71
2018-08-24T12:25:18.843Z,83.64
2018-08-24T12:26:18.165Z,85.97
2018-08-24T12:27:18.277Z,86.74
2018-08-24T12:28:18.270Z,83.84
2018-08-24T12:29:19.320Z,84.42
2018-08-24T12:30:18.380Z,83.16
2018-08-24T12:31:18.439Z,85.33
2018-08-24T12:32:18.486Z,83.40
2018-08-24T12:33:18.545Z,82.43
2018-08-24T12:34:18.617Z,84.71
2018-08-24T12:35:18.644Z,84.80
2018-08-24T12:36:18.697Z,83.64
2018-08-24T12:37:18.751Z,85.33
2018-08-24T12:38:18.806Z,86.49
2018-08-24T12:39:18.883Z,83.98
2018-08-24T12:40:18.913Z,86.01
2018-08-24T12:41:19.041Z,82.81
2018-08-24T12:42:19.020Z,81.56
2018-08-24T12:43:19.072Z,81.71
2018-08-24T12:44:19.149Z,84.75
2018-08-24T12:45:19.183Z,83.11
2018-08-24T12:46:19.235Z,81.75
2018-08-24T12:47:19.291Z,81.75
2018-08-24T12:48:19.341Z,80.79
2018-08-24T12:49:19.428Z,81.02
2018-08-24T12:50:19.479Z,83.00
2018-08-24T12:51:19.507Z,83.86
2018-08-24T12:52:19.559Z,83.23
2018-08-24T12:53:19.617Z,83.65